createdAt,value
2019-01-14T00:01:07.285Z,7.15
2019-01-14T00:04:16.023Z,7.06
2019-01-14T00:06:58.507Z,7.02
2019-01-14T00:09:48.085Z,6.89
2019-01-14T00:12:30.153Z,6.84
2019-01-14T00:15:12.687Z,6.76
2019-01-14T00:18:02.612Z,6.69
2019-01-14T00:20:45.091Z,6.65
2019-01-14T00:23:34.665Z,6.63
2019-01-14T00:26:16.852Z,6.60
2019-01-14T00:29:06.455Z,6.58
2019-01-14T00:31:49.477Z,6.59
2019-01-14T00:34:39.061Z,6.57
2019-01-14T00:37:21.388Z,6.47
2019-01-14T00:40:51.815Z,6.45
2019-01-14T00:43:34.090Z,6.41
2019-01-14T00:46:23.677Z,6.32
2019-01-14T00:49:06.035Z,6.30
2019-01-14T00:51:55.925Z,6.27
2019-01-14T00:54:38.330Z,6.27
2019-01-14T00:57:08.815Z,6.32
2019-01-14T00:59:58.377Z,6.29
2019-01-14T01:02:48.192Z,6.31
2019-01-14T01:05:30.850Z,6.31
2019-01-14T01:08:20.551Z,6.33
2019-01-14T01:11:03.199Z,6.34
2019-01-14T01:13:52.789Z,6.34
2019-01-14T01:16:23.591Z,6.41
2019-01-14T01:18:53.968Z,6.43
2019-01-14T01:21:24.478Z,6.44
2019-01-14T01:23:55.185Z,6.53
2019-01-14T01:26:25.597Z,6.51
2019-01-14T01:28:56.180Z,6.56
2019-01-14T01:31:26.543Z,6.57
2019-01-14T01:33:57.258Z,6.51
2019-01-14T01:36:31.856Z,6.46
2019-01-14T01:39:00.429Z,6.48
2019-01-14T01:41:31.284Z,6.39
2019-01-14T01:44:01.862Z,6.40
2019-01-14T01:46:32.300Z,6.33
2019-01-14T01:49:02.599Z,6.37
2019-01-14T01:51:33.485Z,6.33
2019-01-14T01:54:04.098Z,6.36
2019-01-14T01:56:34.501Z,6.36
2019-01-14T01:59:04.936Z,6.36
2019-01-14T02:01:35.390Z,6.33
2019-01-14T02:04:05.990Z,6.36
2019-01-14T02:06:39.264Z,6.43
2019-01-14T02:09:09.760Z,6.42
2019-01-14T02:11:40.213Z,6.49
2019-01-14T02:14:11.048Z,6.52
2019-01-14T02:16:42.447Z,6.57
2019-01-14T02:19:12.877Z,6.62
2019-01-14T02:21:43.542Z,6.62
2019-01-14T02:24:14.017Z,6.64
2019-01-14T02:26:44.838Z,6.68
2019-01-14T02:29:15.166Z,6.68
2019-01-14T02:31:45.956Z,6.69
2019-01-14T02:34:16.312Z,6.72
2019-01-14T02:36:48.546Z,6.68
2019-01-14T02:39:18.961Z,6.67
2019-01-14T02:41:49.713Z,6.71
2019-01-14T02:44:20.331Z,6.69
2019-01-14T02:46:50.671Z,6.66
2019-01-14T02:49:21.047Z,6.66
2019-01-14T02:51:51.437Z,6.68
2019-01-14T02:54:22.325Z,6.70
2019-01-14T02:56:52.831Z,6.66
2019-01-14T02:59:23.209Z,6.70
2019-01-14T03:01:53.883Z,6.73
2019-01-14T03:04:24.623Z,6.70
2019-01-14T03:06:57.956Z,6.73
2019-01-14T03:09:27.234Z,6.73
2019-01-14T03:11:57.975Z,6.72
2019-01-14T03:14:28.389Z,6.74
2019-01-14T03:16:58.904Z,6.75
2019-01-14T03:19:29.238Z,6.74
2019-01-14T03:21:59.962Z,6.76
2019-01-14T03:24:30.402Z,6.77
2019-01-14T03:27:01.134Z,6.76
2019-01-14T03:29:31.432Z,6.78
2019-01-14T03:32:02.197Z,6.74
2019-01-14T03:34:32.647Z,6.76
2019-01-14T03:37:05.644Z,6.75
2019-01-14T03:39:35.202Z,6.73
2019-01-14T03:42:06.202Z,6.75
2019-01-14T03:44:36.927Z,6.73
2019-01-14T03:47:07.707Z,6.70
2019-01-14T03:49:38.173Z,6.70
2019-01-14T03:52:08.913Z,6.68
2019-01-14T03:54:39.605Z,6.69
2019-01-14T03:57:10.121Z,6.66
2019-01-14T03:59:41.129Z,6.67
2019-01-14T04:02:11.876Z,6.64
2019-01-14T04:04:42.392Z,6.62
2019-01-14T04:07:13.859Z,6.57
2019-01-14T04:09:44.690Z,6.53
2019-01-14T04:12:15.398Z,6.49
2019-01-14T04:14:45.707Z,6.54
2019-01-14T04:17:16.230Z,6.54
2019-01-14T04:19:46.971Z,6.50
2019-01-14T04:22:17.346Z,6.53
2019-01-14T04:24:47.758Z,6.56
2019-01-14T04:27:18.456Z,6.53
2019-01-14T04:29:48.814Z,6.56
2019-01-14T04:32:19.475Z,6.57
2019-01-14T04:34:49.893Z,6.58
2019-01-14T04:37:21.618Z,6.56
2019-01-14T04:39:52.208Z,6.55
2019-01-14T04:42:22.652Z,6.55
2019-01-14T04:44:53.404Z,6.57
2019-01-14T04:47:23.722Z,6.54
2019-01-14T04:49:54.508Z,6.56
2019-01-14T04:52:25.216Z,6.54
2019-01-14T04:54:55.967Z,6.57
2019-01-14T04:57:26.366Z,6.54
2019-01-14T04:59:56.758Z,6.56
2019-01-14T05:02:27.216Z,6.52
2019-01-14T05:04:57.904Z,6.48
2019-01-14T05:07:29.778Z,6.50
2019-01-14T05:10:00.670Z,6.50
2019-01-14T05:12:31.326Z,6.52
2019-01-14T05:15:01.704Z,6.52
2019-01-14T05:17:32.088Z,6.52
2019-01-14T05:20:03.292Z,6.45
2019-01-14T05:22:33.735Z,6.43
2019-01-14T05:25:04.262Z,6.44
2019-01-14T05:27:34.703Z,6.40
2019-01-14T05:30:06.236Z,6.43
2019-01-14T05:32:36.767Z,6.51
2019-01-14T05:35:07.927Z,6.53
2019-01-14T05:37:38.363Z,6.51
2019-01-14T05:40:14.530Z,6.47
2019-01-14T05:42:45.055Z,6.44
2019-01-14T05:45:15.546Z,6.52
2019-01-14T05:47:46.021Z,6.56
2019-01-14T05:50:16.618Z,6.58
2019-01-14T05:52:47.711Z,6.60
2019-01-14T05:55:18.613Z,6.57
2019-01-14T05:57:49.096Z,6.61
2019-01-14T06:00:27.226Z,6.57
2019-01-14T06:02:58.001Z,6.56
2019-01-14T06:05:28.806Z,6.55
2019-01-14T06:07:59.533Z,6.57
2019-01-14T06:10:30.241Z,6.57
2019-01-14T06:13:00.936Z,6.59
2019-01-14T06:15:31.558Z,6.53
2019-01-14T06:18:02.170Z,6.56
2019-01-14T06:20:33.272Z,6.58
2019-01-14T06:23:04.915Z,6.57
2019-01-14T06:25:35.718Z,6.55
2019-01-14T06:28:06.215Z,6.54
2019-01-14T06:30:37.249Z,6.53
2019-01-14T06:33:07.718Z,6.52
2019-01-14T06:35:59.171Z,6.53
2019-01-14T06:38:39.301Z,6.54
2019-01-14T06:41:22.150Z,6.52
2019-01-14T06:44:11.695Z,6.55
2019-01-14T06:46:54.002Z,6.60
2019-01-14T06:49:43.739Z,6.59
2019-01-14T06:52:26.044Z,6.59
2019-01-14T06:55:15.841Z,6.61
2019-01-14T06:57:58.588Z,6.59
2019-01-14T07:00:30.184Z,6.58
2019-01-14T07:03:00.627Z,6.67
2019-01-14T07:05:31.124Z,6.68
2019-01-14T07:08:01.556Z,6.66
2019-01-14T07:10:32.848Z,6.67
2019-01-14T07:13:03.327Z,6.67
2019-01-14T07:15:33.691Z,6.59
2019-01-14T07:18:04.161Z,6.43
2019-01-14T07:20:34.924Z,6.19
2019-01-14T07:23:05.401Z,6.04
2019-01-14T07:25:35.825Z,5.96
2019-01-14T07:28:06.296Z,5.80
2019-01-14T07:30:36.752Z,5.75
2019-01-14T07:33:07.775Z,5.73
2019-01-14T07:35:38.510Z,5.71
2019-01-14T07:38:09.268Z,5.59
2019-01-14T07:40:40.048Z,5.60
2019-01-14T07:43:29.599Z,5.64
2019-01-14T07:46:19.365Z,5.59
2019-01-14T07:49:01.614Z,5.51
2019-01-14T07:51:51.620Z,5.55
2019-01-14T07:54:34.063Z,5.48
2019-01-14T07:57:24.053Z,5.43
2019-01-14T08:00:09.357Z,5.47
2019-01-14T08:02:58.958Z,5.42
2019-01-14T08:05:41.419Z,5.43
2019-01-14T08:08:31.043Z,5.44
2019-01-14T08:11:13.232Z,5.44
2019-01-14T08:14:02.860Z,5.42
2019-01-14T08:16:33.472Z,5.47
2019-01-14T08:19:03.950Z,5.48
2019-01-14T08:21:34.393Z,5.44
2019-01-14T08:24:05.050Z,5.46
2019-01-14T08:26:47.440Z,5.47
2019-01-14T08:29:37.059Z,5.54
2019-01-14T08:32:19.580Z,5.46
2019-01-14T08:35:09.272Z,5.46
2019-01-14T08:37:51.485Z,5.40
2019-01-14T08:43:30.071Z,5.42
2019-01-14T08:49:14.589Z,5.42
2019-01-14T08:52:04.585Z,5.46
2019-01-14T08:54:47.274Z,5.45
2019-01-14T08:57:36.977Z,5.48
2019-01-14T09:00:20.416Z,5.53
2019-01-14T09:03:10.011Z,5.56
2019-01-14T09:05:53.078Z,5.54
2019-01-14T09:08:42.691Z,5.66
2019-01-14T09:11:24.475Z,5.79
2019-01-14T09:13:55.210Z,5.84
2019-01-14T09:16:25.649Z,5.93
2019-01-14T09:18:56.196Z,5.90
2019-01-14T09:21:26.965Z,5.97
2019-01-14T09:23:57.719Z,5.97
2019-01-14T09:26:28.249Z,6.04
2019-01-14T09:28:58.723Z,6.03
2019-01-14T09:31:30.804Z,6.13
2019-01-14T09:34:02.582Z,6.26
2019-01-14T09:36:33.169Z,6.57
2019-01-14T09:39:04.887Z,6.89
2019-01-14T09:41:35.203Z,7.51
2019-01-14T09:44:06.572Z,7.65
2019-01-14T09:46:37.006Z,7.84
2019-01-14T09:49:07.493Z,8.29
2019-01-14T09:51:38.243Z,8.79
2019-01-14T09:54:08.698Z,8.87
2019-01-14T09:56:39.348Z,8.70
2019-01-14T09:59:10.071Z,9.19
2019-01-14T10:01:40.620Z,9.16
2019-01-14T10:04:11.101Z,8.51
2019-01-14T10:06:41.564Z,8.61
2019-01-14T10:09:12.216Z,8.30
2019-01-14T10:11:42.690Z,8.18
2019-01-14T10:14:13.156Z,8.09
2019-01-14T10:16:44.467Z,8.25
2019-01-14T10:19:15.162Z,8.70
2019-01-14T10:22:04.761Z,8.89
2019-01-14T10:24:47.968Z,8.70
2019-01-14T10:27:28.592Z,8.73
2019-01-14T10:30:18.875Z,9.08
2019-01-14T10:33:00.700Z,9.26
2019-01-14T10:38:53.333Z,9.58
2019-01-14T10:44:42.526Z,8.20
2019-01-14T10:47:32.625Z,7.68
2019-01-14T10:50:14.869Z,7.27
2019-01-14T10:53:04.590Z,7.13
2019-01-14T10:55:47.099Z,6.87
2019-01-14T10:58:36.849Z,6.84
2019-01-14T11:01:07.330Z,6.61
2019-01-14T11:03:38.072Z,6.64
2019-01-14T11:06:08.530Z,6.54
2019-01-14T11:08:38.868Z,6.37
2019-01-14T11:11:09.349Z,6.45
2019-01-14T11:13:39.822Z,6.69
2019-01-14T11:16:10.613Z,6.73
2019-01-14T11:18:50.346Z,6.86
2019-01-14T11:21:20.803Z,6.79
2019-01-14T11:23:51.571Z,7.14
2019-01-14T11:26:21.972Z,7.69
2019-01-14T11:28:52.928Z,8.15
2019-01-14T11:31:23.390Z,8.37
2019-01-14T11:33:54.283Z,8.31
2019-01-14T11:36:24.752Z,8.50
2019-01-14T11:38:55.230Z,8.43
2019-01-14T11:41:27.119Z,8.15
2019-01-14T11:43:57.784Z,7.79
2019-01-14T11:46:28.359Z,7.59
2019-01-14T11:48:58.858Z,7.29
2019-01-14T11:51:29.349Z,7.30
2019-01-14T11:53:59.827Z,7.64
2019-01-14T11:56:30.505Z,8.03
2019-01-14T11:59:00.903Z,8.38
2019-01-14T12:01:31.399Z,8.73
2019-01-14T12:04:02.048Z,8.90
2019-01-14T12:06:32.444Z,8.90
2019-01-14T12:09:02.948Z,8.94
2019-01-14T12:11:33.275Z,8.91
2019-01-14T12:14:03.682Z,8.83
2019-01-14T12:16:34.109Z,8.69
2019-01-14T12:19:05.149Z,8.78
2019-01-14T12:21:36.775Z,8.48
2019-01-14T12:24:07.599Z,8.42
2019-01-14T12:26:38.075Z,8.64
2019-01-14T12:29:08.569Z,8.63
2019-01-14T12:31:39.061Z,8.77
2019-01-14T12:34:09.556Z,8.86
2019-01-14T12:36:40.055Z,8.85
2019-01-14T12:39:11.336Z,8.63
2019-01-14T12:41:41.803Z,8.60
2019-01-14T12:44:12.280Z,8.46
2019-01-14T12:46:42.744Z,8.18
2019-01-14T12:49:13.826Z,7.87
2019-01-14T12:51:44.455Z,7.82
2019-01-14T12:54:15.143Z,7.39
2019-01-14T12:56:46.114Z,7.46
2019-01-14T12:59:16.498Z,7.35
2019-01-14T13:01:46.974Z,6.72
2019-01-14T13:04:17.372Z,5.28
2019-01-14T13:06:48.038Z,4.81
2019-01-14T13:09:18.471Z,4.63
2019-01-14T13:11:48.837Z,4.70
2019-01-14T13:14:19.342Z,4.63
2019-01-14T13:16:50.036Z,4.66
2019-01-14T13:19:20.384Z,4.60
2019-01-14T13:21:50.705Z,4.67
2019-01-14T13:24:21.259Z,4.75
2019-01-14T13:26:51.746Z,5.11
2019-01-14T13:29:22.143Z,5.26
2019-01-14T13:31:52.579Z,5.41
2019-01-14T13:34:23.148Z,5.44
2019-01-14T13:36:53.623Z,5.67
2019-01-14T13:39:24.332Z,5.90
2019-01-14T13:41:54.778Z,5.99
2019-01-14T13:44:25.178Z,6.21
2019-01-14T13:46:55.646Z,6.29
2019-01-14T13:49:26.096Z,6.56
2019-01-14T13:51:56.543Z,6.62
2019-01-14T13:54:27.296Z,6.89
2019-01-14T13:56:57.992Z,6.85
2019-01-14T13:59:28.366Z,6.77
2019-01-14T14:01:58.931Z,6.77
2019-01-14T14:04:29.619Z,6.61
2019-01-14T14:07:00.388Z,6.57
2019-01-14T14:09:31.611Z,6.52
2019-01-14T14:12:02.065Z,6.37
2019-01-14T14:14:32.446Z,6.31
2019-01-14T14:17:02.916Z,6.29
2019-01-14T14:19:33.274Z,6.17
2019-01-14T14:22:03.756Z,5.99
2019-01-14T14:24:34.785Z,5.99
2019-01-14T14:27:05.612Z,5.84
2019-01-14T14:29:36.115Z,5.74
2019-01-14T14:32:06.599Z,5.65
2019-01-14T14:34:37.049Z,5.56
2019-01-14T14:37:07.529Z,5.53
2019-01-14T14:39:37.826Z,5.55
2019-01-14T14:42:08.265Z,5.65
2019-01-14T14:44:38.779Z,5.61
2019-01-14T14:47:09.565Z,5.62
2019-01-14T14:49:39.831Z,5.60
2019-01-14T14:52:10.287Z,5.58
2019-01-14T14:54:40.673Z,5.58
2019-01-14T14:57:11.120Z,5.53
2019-01-14T14:59:41.514Z,5.54
2019-01-14T15:02:11.944Z,5.52
2019-01-14T15:04:42.466Z,5.51
2019-01-14T15:07:13.232Z,5.55
2019-01-14T15:09:43.714Z,5.57
2019-01-14T15:12:14.167Z,5.53
2019-01-14T15:14:44.911Z,5.52
2019-01-14T15:17:15.318Z,5.47
2019-01-14T15:19:45.982Z,5.47
2019-01-14T15:22:16.432Z,5.41
2019-01-14T15:24:47.003Z,5.42
2019-01-14T15:27:17.703Z,5.39
2019-01-14T15:29:48.342Z,5.42
2019-01-14T15:32:18.841Z,5.36
2019-01-14T15:34:49.547Z,5.32
2019-01-14T15:37:20.006Z,5.30
2019-01-14T15:39:50.334Z,5.22
2019-01-14T15:42:20.809Z,5.19
2019-01-14T15:44:51.152Z,5.22
2019-01-14T15:47:21.599Z,5.08
2019-01-14T15:49:51.974Z,5.07
2019-01-14T15:52:22.453Z,4.93
2019-01-14T15:54:53.155Z,4.83
2019-01-14T15:57:23.836Z,4.77
2019-01-14T15:59:54.199Z,4.71
2019-01-14T16:02:24.958Z,4.63
2019-01-14T16:04:55.258Z,4.57
2019-01-14T16:07:25.741Z,4.51
2019-01-14T16:09:56.183Z,4.50
2019-01-14T16:12:26.921Z,4.49
2019-01-14T16:14:57.638Z,4.61
2019-01-14T16:17:28.126Z,4.58
2019-01-14T16:19:58.486Z,4.61
2019-01-14T16:22:29.201Z,4.55
2019-01-14T16:24:59.536Z,4.49
2019-01-14T16:27:30.205Z,4.51
2019-01-14T16:30:00.592Z,4.53
2019-01-14T16:32:31.134Z,4.52
2019-01-14T16:35:01.795Z,4.58
2019-01-14T16:37:32.238Z,4.63
2019-01-14T16:40:02.718Z,4.58
2019-01-14T16:42:33.077Z,4.56
2019-01-14T16:45:03.591Z,4.56
2019-01-14T16:47:34.136Z,4.56
2019-01-14T16:50:05.354Z,4.51
2019-01-14T16:52:35.995Z,4.50
2019-01-14T16:55:07.359Z,4.47
2019-01-14T16:57:38.064Z,4.44
2019-01-14T17:00:13.977Z,4.39
2019-01-14T17:02:44.671Z,4.37
2019-01-14T17:05:15.451Z,4.36
2019-01-14T17:07:45.931Z,4.32
2019-01-14T17:10:35.716Z,4.31
2019-01-14T17:13:06.413Z,4.37
2019-01-14T17:15:37.105Z,4.35
2019-01-14T17:18:07.545Z,4.33
2019-01-14T17:20:38.024Z,4.19
2019-01-14T17:23:08.485Z,4.16
2019-01-14T17:25:39.436Z,4.11
2019-01-14T17:28:09.788Z,4.07
2019-01-14T17:30:41.088Z,4.03
2019-01-14T17:33:11.636Z,3.93
2019-01-14T17:35:42.090Z,3.95
2019-01-14T17:38:12.576Z,3.93
2019-01-14T17:40:43.019Z,3.97
2019-01-14T17:43:13.755Z,3.93
2019-01-14T17:45:44.308Z,3.91
2019-01-14T17:48:15.003Z,3.88
2019-01-14T17:50:45.937Z,3.93
2019-01-14T17:53:16.596Z,3.93
2019-01-14T17:55:47.035Z,4.00
2019-01-14T17:58:17.490Z,4.05
2019-01-14T18:00:48.517Z,4.07
2019-01-14T18:03:18.988Z,4.13
2019-01-14T18:05:49.619Z,4.14
2019-01-14T18:08:20.068Z,4.16
2019-01-14T18:10:50.554Z,4.16
2019-01-14T18:13:21.052Z,4.23
2019-01-14T18:15:51.552Z,4.22
2019-01-14T18:18:22.307Z,4.29
2019-01-14T18:20:52.835Z,4.33
2019-01-14T18:23:23.399Z,4.30
2019-01-14T18:25:53.802Z,4.33
2019-01-14T18:28:24.830Z,4.39
2019-01-14T18:30:55.300Z,4.45
2019-01-14T18:33:25.965Z,4.44
2019-01-14T18:35:56.433Z,4.44
2019-01-14T18:38:26.831Z,4.45
2019-01-14T18:40:57.588Z,4.45
2019-01-14T18:43:28.037Z,4.45
2019-01-14T18:45:58.492Z,4.35
2019-01-14T18:48:29.532Z,4.38
2019-01-14T18:51:00.003Z,4.34
2019-01-14T18:53:30.438Z,4.33
2019-01-14T18:56:01.228Z,4.34
2019-01-14T18:58:31.764Z,4.33
2019-01-14T19:01:02.460Z,4.31
2019-01-14T19:03:33.142Z,4.36
2019-01-14T19:06:03.515Z,6.20
2019-01-14T19:08:34.134Z,5.29
2019-01-14T19:11:04.568Z,5.01
2019-01-14T19:13:34.988Z,4.81
2019-01-14T19:16:06.235Z,4.65
2019-01-14T19:18:36.670Z,4.58
2019-01-14T19:21:07.578Z,4.47
2019-01-14T19:23:38.050Z,4.41
2019-01-14T19:26:08.436Z,4.30
2019-01-14T19:28:38.931Z,4.24
2019-01-14T19:31:09.381Z,4.19
2019-01-14T19:33:39.786Z,4.16
2019-01-14T19:36:10.281Z,4.04
2019-01-14T19:38:41.020Z,3.95
2019-01-14T19:41:11.791Z,3.90
2019-01-14T19:43:42.353Z,3.86
2019-01-14T19:46:13.224Z,3.84
2019-01-14T19:48:44.155Z,3.83
2019-01-14T19:51:14.898Z,3.81
2019-01-14T19:53:46.027Z,3.85
2019-01-14T19:56:16.668Z,3.87
2019-01-14T19:58:47.300Z,3.95
2019-01-14T20:01:17.962Z,3.97
2019-01-14T20:03:48.669Z,4.02
2019-01-14T20:06:19.241Z,4.04
2019-01-14T20:08:50.074Z,4.03
2019-01-14T20:11:20.772Z,4.04
2019-01-14T20:13:51.543Z,4.05
2019-01-14T20:16:22.823Z,4.00
2019-01-14T20:18:53.845Z,4.05
2019-01-14T20:21:24.628Z,4.05
2019-01-14T20:23:55.453Z,4.03
2019-01-14T20:26:26.104Z,4.03
2019-01-14T20:28:56.646Z,4.07
2019-01-14T20:31:27.219Z,4.11
2019-01-14T20:33:58.093Z,4.10
2019-01-14T20:36:28.712Z,4.08
2019-01-14T20:39:02.337Z,4.12
2019-01-14T20:41:33.293Z,4.10
2019-01-14T20:44:05.316Z,4.07
2019-01-14T20:46:36.490Z,4.06
2019-01-14T20:49:07.233Z,4.12
2019-01-14T20:51:38.058Z,4.14
2019-01-14T20:54:08.496Z,4.11
2019-01-14T20:56:38.880Z,4.14
2019-01-14T20:59:09.335Z,4.12
2019-01-14T21:01:39.754Z,4.13
2019-01-14T21:04:10.168Z,4.19
2019-01-14T21:06:40.632Z,4.15
2019-01-14T21:09:11.324Z,4.17
2019-01-14T21:11:41.711Z,4.21
2019-01-14T21:14:13.214Z,4.20
2019-01-14T21:16:45.081Z,4.18
2019-01-14T21:19:15.776Z,4.16
2019-01-14T21:21:46.247Z,4.09
2019-01-14T21:24:16.700Z,4.02
2019-01-14T21:26:47.140Z,4.01
2019-01-14T21:29:17.518Z,3.92
2019-01-14T21:31:47.999Z,3.90
2019-01-14T21:34:18.620Z,3.81
2019-01-14T21:36:49.100Z,3.78
2019-01-14T21:39:19.611Z,3.68
2019-01-14T21:42:09.439Z,3.67
2019-01-14T21:44:59.516Z,3.60
2019-01-14T21:47:42.057Z,3.56
2019-01-14T21:50:31.650Z,3.50
2019-01-14T21:53:14.090Z,3.46
2019-01-14T21:56:03.584Z,3.43
2019-01-14T21:58:46.276Z,3.47
2019-01-14T22:01:36.036Z,3.42
2019-01-14T22:04:18.115Z,3.38
2019-01-14T22:07:07.712Z,3.34
2019-01-14T22:09:50.055Z,3.34
2019-01-14T22:12:39.634Z,3.27
2019-01-14T22:15:22.238Z,3.27
2019-01-14T22:18:30.955Z,3.28
2019-01-14T22:21:11.817Z,3.20
2019-01-14T22:23:54.462Z,3.22
2019-01-14T22:26:44.085Z,3.17
2019-01-14T22:29:26.820Z,3.16
2019-01-14T22:32:16.373Z,3.13
2019-01-14T22:34:46.890Z,3.05
2019-01-14T22:37:17.176Z,3.06
2019-01-14T22:39:47.847Z,3.07
2019-01-14T22:42:18.402Z,3.07
2019-01-14T22:44:48.617Z,3.06
2019-01-14T22:47:19.022Z,3.02
2019-01-14T22:49:49.508Z,3.01
2019-01-14T22:52:19.943Z,2.99
2019-01-14T22:54:50.329Z,2.99
2019-01-14T22:57:20.946Z,2.96
2019-01-14T22:59:51.419Z,2.93
2019-01-14T23:02:21.863Z,2.95
2019-01-14T23:04:52.357Z,2.96
2019-01-14T23:07:22.803Z,2.99
2019-01-14T23:09:53.275Z,3.01
2019-01-14T23:12:23.739Z,3.07
2019-01-14T23:15:13.355Z,3.05
2019-01-14T23:17:54.117Z,3.04
2019-01-14T23:20:43.946Z,3.01
2019-01-14T23:23:26.591Z,2.99
2019-01-14T23:29:17.406Z,3.00
2019-01-14T23:35:14.074Z,2.96
2019-01-14T23:40:45.146Z,2.87
2019-01-14T23:43:15.740Z,2.81
2019-01-14T23:45:46.180Z,2.76
2019-01-14T23:48:16.644Z,2.74
2019-01-14T23:50:47.096Z,2.74
2019-01-14T23:53:17.571Z,2.85
2019-01-14T23:55:48.488Z,2.93
2019-01-14T23:58:19.023Z,2.93
